Pendleton, TX

3:19 PM CDT on May 25, 2015 (GMT -0500)
Draughon-Miller Central Texas Regional | | Change Station
CLOSE
Current Station
Airport
Location: Temple,
Elevation: 682 ft
Nearby Weather Stations

Elev 682 ft 31.15 °N, 97.41 °W | Updated 4 minutes ago

Thunderstorm
Thunderstorm
72 °F
Feels Like 72 °F
N
10
Wind Variable Wind from SSW

Today
High -- | Low -- °F
--% Chance of Precip.
Yesterday
High -- | Low -- °F
Precip. -- in
6:28 AM 8:24 PM
Waxing Crescent, 51% visible
Pressure 29.85 in
Visibility 3.0 miles
Clouds Few 800 ft
Scattered Clouds 1300 ft
Mostly Cloudy 1800 ft
Dew Point 66 °F
Humidity 83%
Rainfall 2.87 in
Snow Depth Not available.
UV 6 out of 12
Pollen 4.00 out of 12
Air Quality Not available.
Flu Activity Sporadic
METAR KTPL 252015Z AUTO 20009KT 3SM TS FEW008 SCT013 BKN018 22/19 A2985 RMK AO1 LTG DSNT ALQDS P0039

More Conditions Fewer Conditions

Pressure 29.85 in
Visibility 3.0 miles
Clouds Few 800 ft
Scattered Clouds 1300 ft
Mostly Cloudy 1800 ft
Dew Point 66 °F
Humidity 83%
Rainfall 2.87 in
Snow Depth Not available.
UV 6 out of 12
Pollen 4.00 out of 12
Air Quality Not available.
Flu Activity Sporadic
METAR KTPL 252015Z AUTO 20009KT 3SM TS FEW008 SCT013 BKN018 22/19 A2985 RMK AO1 LTG DSNT ALQDS P0039

More Conditions Fewer Conditions

Nowcast | as of 11:52 am CDT on May 25, 2015

A line of strong to severe thunderstorms will continue to move towards the northeast at around 35 to 40 mph. The main hazards with this line of thunderstorms will be damaging straight line winds...and perhaps quarter sized hail. Heavy rain and a brief tornado will also be possible. Additional showers and thunderstorms will also develop ahead of the main line along the Highway 281 corridor. Otherwise...expect mostly to partly cloudy skies across much of north and central Texas. Temperatures will climb into the mid 70s and low 80s. Additional thunderstorm development will be possible through the afternoon hours. These thunderstorms will likely become severe and will be capable of producing large hail...destructive winds and a few tornadoes. Heavy rain will also likely result in flash flooding.

×

10-Day Weather Forecast

Almanac

Astronomy

May. 25, 2015 Rise Set
Actual Time
Civil Twilight
Nautical Twilight
Astronomical Twilight
Moon
Length of Visible Light
Length of Day
Tomorrow will be .
, % of the Moon is Illuminated

Today's Extremes

State Highs State Lows

Community

WunderPhotos

Upload Photos

1,824,117 photos uploaded!

WunderBlogs® & News

Nearby

Air Quality

  Air Quality AQ Index Pollutant
Not available.

Snow Depth

Station Depth Elevation

Earthquake Activity

City Distance Mag. Time & Date
Minimum magnitude displayed is 2.5.

Coastal Water Temperatures

Place Temperature

Stations

Nearby Weather Stations

Station Location Temp. Windchill Dew Point Humidity Wind Precip. Elev Updated Type